createdAt,value
2022-08-17T00:01:00.626Z,97555.13
2022-08-17T00:02:21.252Z,97546.81
2022-08-17T00:03:40.904Z,97541.19
2022-08-17T00:04:48.432Z,97548.09
2022-08-17T00:06:08.790Z,97545.31
2022-08-17T00:07:11.799Z,97554.34
2022-08-17T00:08:16.796Z,97549.63
2022-08-17T00:09:19.976Z,97548.09
2022-08-17T00:10:26.897Z,97542.34
2022-08-17T00:11:40.246Z,97543.97
2022-08-17T00:12:46.819Z,97548.53
2022-08-17T00:13:55.142Z,97546.91
2022-08-17T00:14:59.332Z,97549.22
2022-08-17T00:16:06.855Z,97544.78
2022-08-17T00:17:09.986Z,97542.88
2022-08-17T00:19:06.241Z,97543.59
2022-08-17T00:19:36.964Z,97540.69
2022-08-17T00:20:40.018Z,97542.06
2022-08-17T00:22:32.711Z,97540.50
2022-08-17T00:23:17.421Z,97547.41
2022-08-17T00:24:20.685Z,97541.84
2022-08-17T00:25:23.678Z,97540.53
2022-08-17T00:26:43.755Z,97540.91
2022-08-17T00:27:51.650Z,97545.81
2022-08-17T00:28:57.151Z,97543.97
2022-08-17T00:30:00.097Z,97542.88
2022-08-17T00:31:03.009Z,97542.69
2022-08-17T00:33:11.806Z,97539.19
2022-08-17T00:33:31.738Z,97543.66
2022-08-17T00:34:37.771Z,97542.88
2022-08-17T00:35:41.363Z,97540.13
2022-08-17T00:36:44.308Z,97541.38
2022-08-17T00:37:47.281Z,97543.97
2022-08-17T00:38:51.579Z,97541.78
2022-08-17T00:39:58.024Z,97543.78
2022-08-17T00:41:14.066Z,97539.44
2022-08-17T00:42:21.830Z,97544.72
2022-08-17T00:43:42.308Z,97539.87
2022-08-17T00:44:46.466Z,97541.66
2022-08-17T00:45:50.205Z,97542.38
2022-08-17T00:46:53.256Z,97541.94
2022-08-17T00:47:56.151Z,97541.81
2022-08-17T00:49:00.327Z,97539.66
2022-08-17T00:50:05.514Z,97543.09
2022-08-17T00:51:20.716Z,97539.37
2022-08-17T00:52:28.936Z,97545.06
2022-08-17T00:53:37.829Z,97542.34
2022-08-17T00:54:43.740Z,97545.38
2022-08-17T00:55:47.583Z,97547.00
2022-08-17T00:56:58.936Z,97547.00
2022-08-17T00:58:05.531Z,97538.91
2022-08-17T00:59:12.634Z,97547.53
2022-08-17T01:00:28.411Z,97535.78
2022-08-17T01:01:32.986Z,97542.50
2022-08-17T01:02:43.418Z,97550.56
2022-08-17T01:03:46.422Z,97547.00
2022-08-17T01:04:53.212Z,97550.72
2022-08-17T01:05:59.123Z,97545.94
2022-08-17T01:07:05.718Z,97550.69
2022-08-17T01:08:13.592Z,97547.19
2022-08-17T01:09:18.529Z,97547.84
2022-08-17T01:10:59.690Z,97548.34
2022-08-17T01:11:53.962Z,97544.72
2022-08-17T01:12:57.083Z,97546.75
2022-08-17T01:14:00.201Z,97548.94
2022-08-17T01:15:07.041Z,97549.59
2022-08-17T01:16:13.733Z,97557.94
2022-08-17T01:17:17.019Z,97558.59
2022-08-17T01:18:22.512Z,97554.31
2022-08-17T01:19:31.323Z,97558.47
2022-08-17T01:20:43.136Z,97558.47
2022-08-17T01:22:09.411Z,97557.59
2022-08-17T01:23:12.336Z,97569.72
2022-08-17T01:24:24.071Z,97559.34
2022-08-17T01:25:28.790Z,97561.25
2022-08-17T01:26:33.497Z,97556.94
2022-08-17T01:27:37.533Z,97561.87
2022-08-17T01:28:54.807Z,97564.03
2022-08-17T01:30:03.706Z,97565.44
2022-08-17T01:31:09.080Z,97554.22
2022-08-17T01:32:13.193Z,97563.34
2022-08-17T01:33:16.322Z,97557.22
2022-08-17T01:34:20.926Z,97552.38
2022-08-17T01:35:23.991Z,97553.06
2022-08-17T01:36:28.435Z,97556.41
2022-08-17T01:37:41.218Z,97555.81
2022-08-17T01:38:45.048Z,97558.53
2022-08-17T01:39:54.185Z,97557.81
2022-08-17T01:41:06.709Z,97562.66
2022-08-17T01:42:25.260Z,97553.75
2022-08-17T01:43:41.557Z,97559.84
2022-08-17T01:44:44.674Z,97559.25
2022-08-17T01:46:03.863Z,97565.03
2022-08-17T01:47:07.007Z,97561.47
2022-08-17T01:48:10.959Z,97565.78
2022-08-17T01:49:13.997Z,97560.38
2022-08-17T01:50:23.922Z,97553.50
2022-08-17T01:51:33.490Z,97558.91
2022-08-17T01:52:36.539Z,97565.19
2022-08-17T01:53:45.757Z,97559.19
2022-08-17T01:54:51.678Z,97563.28
2022-08-17T01:55:59.384Z,97563.16
2022-08-17T01:57:03.046Z,97560.69
2022-08-17T01:58:10.293Z,97566.03
2022-08-17T01:59:13.535Z,97564.81
2022-08-17T02:00:18.830Z,97564.53
2022-08-17T02:01:25.157Z,97564.66
2022-08-17T02:02:31.224Z,97562.13
2022-08-17T02:03:36.805Z,97561.13
2022-08-17T02:04:39.761Z,97565.41
2022-08-17T02:05:42.832Z,97563.66
2022-08-17T02:06:53.090Z,97564.44
2022-08-17T02:08:00.529Z,97571.25
2022-08-17T02:09:05.479Z,97564.00
2022-08-17T02:10:16.746Z,97569.87
2022-08-17T02:11:23.449Z,97556.03
2022-08-17T02:12:39.236Z,97569.47
2022-08-17T02:13:48.848Z,97557.06
2022-08-17T02:15:01.032Z,97566.78
2022-08-17T02:16:04.726Z,97564.28
2022-08-17T02:17:07.763Z,97557.44
2022-08-17T02:18:13.102Z,97566.03
2022-08-17T02:19:17.225Z,97568.91
2022-08-17T02:20:42.159Z,97557.06
2022-08-17T02:21:45.607Z,97554.03
2022-08-17T02:22:49.587Z,97557.78
2022-08-17T02:23:54.056Z,97556.72
2022-08-17T02:25:00.522Z,97563.91
2022-08-17T02:26:05.766Z,97553.16
2022-08-17T02:27:08.755Z,97553.63
2022-08-17T02:28:12.621Z,97556.91
2022-08-17T02:29:16.155Z,97549.66
2022-08-17T02:30:59.287Z,97555.84
2022-08-17T02:31:43.712Z,97551.28
2022-08-17T02:32:46.749Z,97552.13
2022-08-17T02:34:00.422Z,97548.44
2022-08-17T02:35:09.240Z,97552.44
2022-08-17T02:36:13.861Z,97550.84
2022-08-17T02:37:18.533Z,97560.44
2022-08-17T02:38:21.790Z,97558.25
2022-08-17T02:39:24.825Z,97556.50
2022-08-17T02:40:36.434Z,97552.63
2022-08-17T02:41:41.188Z,97562.69
2022-08-17T02:42:45.502Z,97565.00
2022-08-17T02:43:48.419Z,97556.13
2022-08-17T02:44:51.281Z,97561.00
2022-08-17T02:45:54.699Z,97559.03
2022-08-17T02:46:57.678Z,97554.75
2022-08-17T02:48:00.777Z,97552.75
2022-08-17T02:49:05.275Z,97557.53
2022-08-17T02:50:10.235Z,97557.00
2022-08-17T02:51:13.836Z,97561.97
2022-08-17T02:52:16.860Z,97546.34
2022-08-17T02:53:39.822Z,97554.56
2022-08-17T02:54:42.840Z,97556.72
2022-08-17T02:55:45.877Z,97557.19
2022-08-17T02:56:48.899Z,97559.56
2022-08-17T02:57:52.993Z,97550.19
2022-08-17T02:58:56.033Z,97554.13
2022-08-17T02:59:58.979Z,97552.63
2022-08-17T03:01:02.062Z,97561.09
2022-08-17T03:02:07.697Z,97555.75
2022-08-17T03:03:13.884Z,97555.75
2022-08-17T03:04:17.030Z,97558.25
2022-08-17T03:05:22.351Z,97567.72
2022-08-17T03:06:25.615Z,97553.56
2022-08-17T03:07:28.545Z,97558.97
2022-08-17T03:08:32.805Z,97554.69
2022-08-17T03:09:35.727Z,97559.44
2022-08-17T03:10:38.978Z,97562.44
2022-08-17T03:11:41.891Z,97560.25
2022-08-17T03:12:46.076Z,97558.09
2022-08-17T03:13:48.919Z,97560.31
2022-08-17T03:14:54.850Z,97561.72
2022-08-17T03:15:57.978Z,97566.19
2022-08-17T03:17:01.489Z,97565.78
2022-08-17T03:18:04.772Z,97568.81
2022-08-17T03:19:07.807Z,97565.94
2022-08-17T03:20:11.715Z,97566.00
2022-08-17T03:21:14.702Z,97562.47
2022-08-17T03:22:36.276Z,97565.28
2022-08-17T03:23:42.394Z,97562.81
2022-08-17T03:24:45.180Z,97564.28
2022-08-17T03:25:48.081Z,97567.22
2022-08-17T03:26:56.370Z,97561.09
2022-08-17T03:27:59.845Z,97565.25
2022-08-17T03:29:06.711Z,97563.91
2022-08-17T03:30:13.348Z,97570.09
2022-08-17T03:31:18.803Z,97571.72
2022-08-17T03:32:21.765Z,97572.34
2022-08-17T03:33:24.732Z,97571.38
2022-08-17T03:34:27.762Z,97570.50
2022-08-17T03:35:37.861Z,97571.03
2022-08-17T03:36:40.865Z,97574.56
2022-08-17T03:37:43.769Z,97575.47
2022-08-17T03:38:46.881Z,97571.09
2022-08-17T03:39:51.757Z,97574.00
2022-08-17T03:40:57.338Z,97570.56
2022-08-17T03:42:32.262Z,97580.31
2022-08-17T03:43:39.703Z,97575.53
2022-08-17T03:44:42.700Z,97578.38
2022-08-17T03:46:04.206Z,97577.66
2022-08-17T03:47:27.674Z,97578.44
2022-08-17T03:48:50.310Z,97574.50
2022-08-17T03:50:25.379Z,97587.59
2022-08-17T03:51:46.852Z,97587.19
2022-08-17T03:53:09.248Z,97587.19
2022-08-17T03:54:30.889Z,97583.06
2022-08-17T03:55:52.312Z,97585.22
2022-08-17T03:57:10.704Z,97585.47
2022-08-17T03:58:15.200Z,97580.44
2022-08-17T03:59:23.360Z,97585.00
2022-08-17T04:00:29.004Z,97590.28
2022-08-17T04:01:32.303Z,97583.53
2022-08-17T04:02:36.357Z,97589.62
2022-08-17T04:03:39.314Z,97595.34
2022-08-17T04:04:42.278Z,97591.03
2022-08-17T04:05:45.210Z,97579.31
2022-08-17T04:06:48.438Z,97591.66
2022-08-17T04:07:52.083Z,97592.22
2022-08-17T04:08:56.056Z,97595.31
2022-08-17T04:09:59.713Z,97588.97
2022-08-17T04:11:02.687Z,97592.56
2022-08-17T04:12:06.158Z,97593.19
2022-08-17T04:13:10.482Z,97590.34
2022-08-17T04:14:13.386Z,97598.50
2022-08-17T04:15:17.026Z,97595.16
2022-08-17T04:16:20.352Z,97599.47
2022-08-17T04:17:29.644Z,97596.22
2022-08-17T04:18:43.332Z,97604.59
2022-08-17T04:19:46.326Z,97600.63
2022-08-17T04:20:49.617Z,97601.41
2022-08-17T04:21:52.609Z,97601.63
2022-08-17T04:23:28.637Z,97596.31
2022-08-17T04:24:33.285Z,97599.09
2022-08-17T04:25:38.737Z,97600.50
2022-08-17T04:26:54.054Z,97599.69
2022-08-17T04:28:02.109Z,97601.59
2022-08-17T04:29:05.097Z,97603.62
2022-08-17T04:30:08.823Z,97602.78
2022-08-17T04:31:13.887Z,97606.94
2022-08-17T04:32:19.597Z,97600.63
2022-08-17T04:33:45.664Z,97594.44
2022-08-17T04:34:48.591Z,97599.47
2022-08-17T04:35:54.427Z,97596.12
2022-08-17T04:36:57.580Z,97601.22
2022-08-17T04:38:00.860Z,97598.56
2022-08-17T04:39:04.480Z,97602.16
2022-08-17T04:40:27.549Z,97602.03
2022-08-17T04:41:49.411Z,97605.19
2022-08-17T04:43:23.582Z,97607.41
2022-08-17T04:44:36.823Z,97600.47
2022-08-17T04:45:51.223Z,97605.38
2022-08-17T04:46:59.640Z,97607.50
2022-08-17T04:48:06.743Z,97607.81
2022-08-17T04:49:11.597Z,97611.38
2022-08-17T04:50:14.494Z,97610.19
2022-08-17T04:51:28.310Z,97608.72
2022-08-17T04:52:43.249Z,97605.31
2022-08-17T04:53:54.618Z,97616.84
2022-08-17T04:54:57.945Z,97613.13
2022-08-17T04:56:01.166Z,97622.84
2022-08-17T04:57:04.161Z,97620.06
2022-08-17T04:58:08.034Z,97619.25
2022-08-17T04:59:17.941Z,97614.34
2022-08-17T05:00:21.559Z,97616.44
2022-08-17T05:01:26.499Z,97617.94
2022-08-17T05:02:29.460Z,97620.78
2022-08-17T05:03:35.896Z,97622.63
2022-08-17T05:04:42.066Z,97617.16
2022-08-17T05:05:49.997Z,97610.94
2022-08-17T05:06:54.732Z,97618.72
2022-08-17T05:08:00.136Z,97625.84
2022-08-17T05:09:03.741Z,97621.78
2022-08-17T05:10:07.298Z,97624.66
2022-08-17T05:11:10.824Z,97630.44
2022-08-17T05:12:16.382Z,97626.38
2022-08-17T05:13:23.140Z,97634.84
2022-08-17T05:14:32.966Z,97636.00
2022-08-17T05:15:44.888Z,97633.31
2022-08-17T05:16:49.634Z,97634.72
2022-08-17T05:17:52.599Z,97636.19
2022-08-17T05:18:57.006Z,97640.53
2022-08-17T05:19:59.850Z,97640.69
2022-08-17T05:21:03.194Z,97640.19
2022-08-17T05:22:06.733Z,97634.75
2022-08-17T05:23:13.073Z,97636.97
2022-08-17T05:24:38.545Z,97632.81
2022-08-17T05:25:42.307Z,97634.31
2022-08-17T05:26:50.230Z,97630.34
2022-08-17T05:27:55.423Z,97638.94
2022-08-17T05:29:00.440Z,97631.50
2022-08-17T05:30:06.327Z,97630.03
2022-08-17T05:31:09.565Z,97638.09
2022-08-17T05:32:37.773Z,97642.31
2022-08-17T05:33:46.296Z,97631.13
2022-08-17T05:34:52.870Z,97627.78
2022-08-17T05:35:58.696Z,97633.13
2022-08-17T05:37:01.675Z,97632.63
2022-08-17T05:38:05.776Z,97634.06
2022-08-17T05:39:08.910Z,97638.50
2022-08-17T05:40:26.742Z,97631.34
2022-08-17T05:41:35.853Z,97640.59
2022-08-17T05:42:38.849Z,97637.19
2022-08-17T05:43:43.003Z,97642.09
2022-08-17T05:44:45.934Z,97638.59
2022-08-17T05:46:22.786Z,97633.06
2022-08-17T05:47:27.174Z,97637.97
2022-08-17T05:48:41.965Z,97637.31
2022-08-17T05:49:44.925Z,97643.66
2022-08-17T05:51:04.212Z,97643.97
2022-08-17T05:52:40.367Z,97639.88
2022-08-17T05:53:53.030Z,97640.56
2022-08-17T05:55:14.366Z,97635.22
2022-08-17T05:56:32.286Z,97642.34
2022-08-17T05:57:39.883Z,97645.34
2022-08-17T05:59:15.745Z,97653.19
2022-08-17T06:00:36.394Z,97644.91
2022-08-17T06:01:51.517Z,97652.53
2022-08-17T06:03:12.899Z,97649.28
2022-08-17T06:04:31.054Z,97645.16
2022-08-17T06:05:55.975Z,97653.06
2022-08-17T06:07:14.240Z,97648.09
2022-08-17T06:08:46.288Z,97647.44
2022-08-17T06:10:02.509Z,97648.09
2022-08-17T06:11:19.780Z,97648.84
2022-08-17T06:12:45.153Z,97646.44
2022-08-17T06:13:53.420Z,97649.91
2022-08-17T06:15:26.518Z,97647.13
2022-08-17T06:16:41.387Z,97651.31
2022-08-17T06:17:44.886Z,97649.28
2022-08-17T06:19:02.739Z,97647.88
2022-08-17T06:20:11.945Z,97648.72
2022-08-17T06:21:18.530Z,97648.78
2022-08-17T06:22:33.636Z,97655.16
2022-08-17T06:23:51.034Z,97649.69
2022-08-17T06:25:20.129Z,97651.84
2022-08-17T06:26:37.332Z,97656.19
2022-08-17T06:27:45.716Z,97654.03
2022-08-17T06:29:08.208Z,97659.09
2022-08-17T06:30:26.490Z,97661.28
2022-08-17T06:31:35.184Z,97659.16
2022-08-17T06:32:41.607Z,97659.88
2022-08-17T06:33:47.716Z,97659.28
2022-08-17T06:34:51.806Z,97656.53
2022-08-17T06:36:06.188Z,97658.03
2022-08-17T06:37:21.545Z,97655.19
2022-08-17T06:38:54.676Z,97662.22
2022-08-17T06:40:28.442Z,97655.91
2022-08-17T06:41:38.170Z,97663.56
2022-08-17T06:43:09.115Z,97667.88
2022-08-17T06:44:43.312Z,97665.16
2022-08-17T06:45:49.559Z,97668.75
2022-08-17T06:47:02.602Z,97668.78
2022-08-17T06:48:35.307Z,97668.78
2022-08-17T06:50:19.443Z,97680.72
2022-08-17T06:51:40.923Z,97670.88
2022-08-17T06:52:54.267Z,97681.47
2022-08-17T06:54:17.336Z,97676.56
2022-08-17T06:55:28.082Z,97676.53
2022-08-17T06:56:53.119Z,97679.38
2022-08-17T06:58:05.895Z,97673.78
2022-08-17T06:59:25.657Z,97670.97
2022-08-17T07:00:33.870Z,97674.50
2022-08-17T07:02:52.281Z,97676.63
2022-08-17T07:04:14.040Z,97676.66
2022-08-17T07:05:20.052Z,97675.25
2022-08-17T07:06:27.424Z,97676.66
2022-08-17T07:07:49.327Z,97678.78
2022-08-17T07:08:58.423Z,97677.37
2022-08-17T07:10:03.176Z,97669.63
2022-08-17T07:11:14.562Z,97666.81
2022-08-17T07:12:28.015Z,97670.34
2022-08-17T07:13:54.147Z,97673.16
2022-08-17T07:15:11.807Z,97675.97
2022-08-17T07:16:25.701Z,97673.16
2022-08-17T07:17:46.600Z,97678.78
2022-08-17T07:18:53.363Z,97681.59
2022-08-17T07:20:11.828Z,97675.97
2022-08-17T07:21:37.200Z,97680.88
2022-08-17T07:23:13.798Z,97678.06
2022-08-17T07:24:37.537Z,97671.03
2022-08-17T07:25:40.620Z,97678.78
2022-08-17T07:26:43.503Z,97677.37
2022-08-17T07:27:53.188Z,97680.19
2022-08-17T07:28:57.591Z,97681.56
2022-08-17T07:30:10.991Z,97672.34
2022-08-17T07:31:17.732Z,97682.22
2022-08-17T07:32:32.092Z,97673.78
2022-08-17T07:33:37.066Z,97683.63
2022-08-17T07:35:16.999Z,97680.78
2022-08-17T07:36:29.819Z,97680.78
2022-08-17T07:37:34.573Z,97673.72
2022-08-17T07:38:59.762Z,97682.91
2022-08-17T07:40:29.838Z,97682.81
2022-08-17T07:41:59.102Z,97685.59
2022-08-17T07:43:24.461Z,97683.50
2022-08-17T07:44:27.661Z,97679.09
2022-08-17T07:45:37.772Z,97686.25
2022-08-17T07:47:17.946Z,97684.94
2022-08-17T07:48:27.209Z,97677.81
2022-08-17T07:49:37.318Z,97679.25
2022-08-17T07:50:42.035Z,97679.97
2022-08-17T07:51:52.720Z,97680.62
2022-08-17T07:52:55.733Z,97685.53
2022-08-17T07:54:22.659Z,97679.22
2022-08-17T07:55:35.097Z,97681.22
2022-08-17T07:57:26.624Z,97677.59
2022-08-17T07:58:35.029Z,97683.87
2022-08-17T07:59:43.312Z,97684.44
2022-08-17T08:00:47.044Z,97687.97
2022-08-17T08:02:01.146Z,97682.91
2022-08-17T08:03:34.266Z,97686.53
2022-08-17T08:05:02.136Z,97685.09
2022-08-17T08:06:21.045Z,97682.69
2022-08-17T08:07:25.740Z,97684.78
2022-08-17T08:08:36.249Z,97694.63
2022-08-17T08:09:47.424Z,97690.38
2022-08-17T08:11:15.697Z,97686.72
2022-08-17T08:12:42.606Z,97688.03
2022-08-17T08:13:49.836Z,97685.69
2022-08-17T08:14:58.268Z,97684.31
2022-08-17T08:16:29.925Z,97684.41
2022-08-17T08:17:38.449Z,97685.63
2022-08-17T08:18:56.067Z,97687.62
2022-08-17T08:20:01.255Z,97688.97
2022-08-17T08:21:39.658Z,97690.87
2022-08-17T08:22:45.927Z,97688.72
2022-08-17T08:24:16.666Z,97685.81
2022-08-17T08:25:25.643Z,97683.59
2022-08-17T08:26:37.757Z,97684.63
2022-08-17T08:27:57.675Z,97680.53
2022-08-17T08:29:19.444Z,97694.38
2022-08-17T08:30:22.875Z,97689.09
2022-08-17T08:32:03.874Z,97689.00
2022-08-17T08:33:20.459Z,97686.78
2022-08-17T08:35:03.007Z,97683.69
2022-08-17T08:36:11.815Z,97680.81
2022-08-17T08:37:52.513Z,97678.78
2022-08-17T08:38:56.857Z,97685.25
2022-08-17T08:40:30.288Z,97682.88
2022-08-17T08:41:54.903Z,97679.22
2022-08-17T08:43:29.108Z,97686.03
2022-08-17T08:45:00.853Z,97688.41
2022-08-17T08:46:20.240Z,97680.41
2022-08-17T08:47:42.100Z,97684.59
2022-08-17T08:49:12.648Z,97680.47
2022-08-17T08:50:52.545Z,97677.72
2022-08-17T08:52:01.430Z,97673.47
2022-08-17T08:53:16.179Z,97677.81
2022-08-17T08:54:41.038Z,97678.78
2022-08-17T08:56:02.804Z,97683.78
2022-08-17T08:57:25.650Z,97673.16
2022-08-17T08:58:42.079Z,97682.63
2022-08-17T09:00:14.950Z,97684.03
2022-08-17T09:01:28.246Z,97678.38
2022-08-17T09:02:53.056Z,97681.97
2022-08-17T09:04:25.011Z,97676.69
2022-08-17T09:05:50.342Z,97675.16
2022-08-17T09:07:15.762Z,97679.34
2022-08-17T09:08:32.541Z,97680.38
2022-08-17T09:09:49.952Z,97680.47
2022-08-17T09:11:16.821Z,97687.78
2022-08-17T09:12:55.238Z,97682.22
2022-08-17T09:14:07.221Z,97687.47
2022-08-17T09:15:35.179Z,97679.81
2022-08-17T09:16:47.345Z,97683.72
2022-08-17T09:18:59.121Z,97683.09
2022-08-17T09:19:50.872Z,97685.34
2022-08-17T09:21:01.838Z,97694.22
2022-08-17T09:22:32.664Z,97690.53
2022-08-17T09:23:35.510Z,97690.28
2022-08-17T09:24:46.848Z,97690.13
2022-08-17T09:25:56.441Z,97688.00
2022-08-17T09:27:31.052Z,97692.44
2022-08-17T09:28:39.034Z,97691.16
2022-08-17T09:29:49.355Z,97690.13
2022-08-17T09:30:56.509Z,97690.97
2022-08-17T09:32:04.024Z,97688.12
2022-08-17T09:33:09.416Z,97690.41
2022-08-17T09:34:17.454Z,97686.13
2022-08-17T09:35:36.588Z,97689.78
2022-08-17T09:37:11.201Z,97679.69
2022-08-17T09:38:23.161Z,97682.03
2022-08-17T09:39:36.721Z,97688.91
2022-08-17T09:41:01.932Z,97690.87
2022-08-17T09:42:10.926Z,97673.88
2022-08-17T09:43:32.194Z,97671.44
2022-08-17T09:44:49.474Z,97679.75
2022-08-17T09:45:58.207Z,97677.88
2022-08-17T09:48:02.806Z,97672.47
2022-08-17T09:49:43.101Z,97677.91
2022-08-17T09:51:21.976Z,97679.59
2022-08-17T09:52:28.772Z,97674.41
2022-08-17T09:53:32.299Z,97668.09
2022-08-17T09:54:40.530Z,97669.25
2022-08-17T09:56:10.195Z,97664.00
2022-08-17T09:57:33.531Z,97670.78
2022-08-17T09:59:17.176Z,97669.94
2022-08-17T10:00:37.488Z,97671.84
2022-08-17T10:01:57.553Z,97671.88
2022-08-17T10:03:38.973Z,97673.50
2022-08-17T10:04:54.758Z,97672.81
2022-08-17T10:06:24.812Z,97672.66
2022-08-17T10:07:57.494Z,97673.34
2022-08-17T10:09:35.768Z,97683.25
2022-08-17T10:10:52.265Z,97676.69
2022-08-17T10:12:30.135Z,97676.81
2022-08-17T10:13:54.259Z,97681.69
2022-08-17T10:15:17.371Z,97681.81
2022-08-17T10:16:52.455Z,97680.00
2022-08-17T10:18:20.230Z,97681.44
2022-08-17T10:19:40.088Z,97685.03
2022-08-17T10:21:19.276Z,97684.19
2022-08-17T10:22:53.224Z,97680.44
2022-08-17T10:24:28.194Z,97672.09
2022-08-17T10:25:55.753Z,97676.19
2022-08-17T10:27:02.064Z,97686.06
2022-08-17T10:28:12.949Z,97673.78
2022-08-17T10:29:46.222Z,97674.91
2022-08-17T10:31:16.595Z,97673.94
2022-08-17T10:32:34.380Z,97662.28
2022-08-17T10:33:57.997Z,97665.69
2022-08-17T10:35:34.301Z,97675.91
2022-08-17T10:37:00.397Z,97673.12
2022-08-17T10:38:34.169Z,97667.16
2022-08-17T10:39:52.569Z,97672.94
2022-08-17T10:41:40.317Z,97672.38
2022-08-17T10:43:12.951Z,97671.28
2022-08-17T10:44:48.643Z,97677.94
2022-08-17T10:46:30.950Z,97671.84
2022-08-17T10:48:06.283Z,97678.00
2022-08-17T10:49:18.505Z,97673.94
2022-08-17T10:50:56.338Z,97674.47
2022-08-17T10:52:20.539Z,97671.69
2022-08-17T10:53:32.629Z,97660.72
2022-08-17T10:55:09.241Z,97666.81
2022-08-17T10:56:15.926Z,97674.00
2022-08-17T10:57:27.524Z,97656.22
2022-08-17T10:58:46.268Z,97663.19
2022-08-17T10:59:51.766Z,97661.22
2022-08-17T11:00:54.603Z,97658.63
2022-08-17T11:02:18.652Z,97659.47
2022-08-17T11:03:24.979Z,97657.06
2022-08-17T11:04:37.078Z,97660.63
2022-08-17T11:06:22.919Z,97656.69
2022-08-17T11:07:58.999Z,97662.25
2022-08-17T11:09:44.133Z,97657.84
2022-08-17T11:10:55.027Z,97662.84
2022-08-17T11:12:38.811Z,97657.94
2022-08-17T11:14:07.107Z,97656.97
2022-08-17T11:15:20.192Z,97653.22
2022-08-17T11:16:42.007Z,97663.91
2022-08-17T11:17:50.510Z,97657.84
2022-08-17T11:18:53.799Z,97660.25
2022-08-17T11:20:14.826Z,97658.75
2022-08-17T11:21:43.987Z,97660.41
2022-08-17T11:23:18.639Z,97655.03
2022-08-17T11:24:43.443Z,97658.12
2022-08-17T11:25:55.755Z,97644.81
2022-08-17T11:27:14.142Z,97649.88
2022-08-17T11:28:34.680Z,97651.22
2022-08-17T11:30:02.246Z,97645.03
2022-08-17T11:31:38.561Z,97652.22
2022-08-17T11:32:54.689Z,97650.91
2022-08-17T11:34:04.876Z,97652.78
2022-08-17T11:35:14.945Z,97644.72
2022-08-17T11:36:34.499Z,97642.34
2022-08-17T11:37:53.311Z,97635.94
2022-08-17T11:39:23.208Z,97637.75
2022-08-17T11:40:54.238Z,97632.63
2022-08-17T11:42:06.720Z,97634.47
2022-08-17T11:43:27.670Z,97632.59
2022-08-17T11:44:52.772Z,97635.25
2022-08-17T11:46:14.018Z,97634.34
2022-08-17T11:48:26.735Z,97633.75
2022-08-17T11:50:00.424Z,97630.56
2022-08-17T11:51:28.375Z,97630.75
2022-08-17T11:52:45.953Z,97631.09
2022-08-17T11:53:50.285Z,97632.22
2022-08-17T11:54:53.171Z,97632.91
2022-08-17T11:55:59.111Z,97628.78
2022-08-17T11:57:28.163Z,97631.53
2022-08-17T11:58:38.768Z,97617.84
2022-08-17T11:59:46.283Z,97621.91
2022-08-17T12:01:02.146Z,97621.06
2022-08-17T12:02:20.190Z,97625.91
2022-08-17T12:03:53.940Z,97621.34
2022-08-17T12:05:21.489Z,97619.28
2022-08-17T12:06:30.371Z,97611.12
2022-08-17T12:07:41.944Z,97614.03
2022-08-17T12:08:55.338Z,97614.06
2022-08-17T12:10:00.781Z,97616.16
2022-08-17T12:11:10.222Z,97613.94
2022-08-17T12:12:20.423Z,97607.09
2022-08-17T12:13:30.613Z,97615.09
2022-08-17T12:15:11.505Z,97614.56
2022-08-17T12:16:19.771Z,97609.34
2022-08-17T12:17:39.237Z,97604.75
2022-08-17T12:18:59.558Z,97608.16
2022-08-17T12:20:15.823Z,97603.72
2022-08-17T12:21:23.454Z,97603.62
2022-08-17T12:22:44.558Z,97599.13
2022-08-17T12:23:51.997Z,97594.47
2022-08-17T12:24:55.909Z,97595.06
2022-08-17T12:26:19.679Z,97601.59
2022-08-17T12:28:05.521Z,97602.00
2022-08-17T12:29:35.889Z,97602.59
2022-08-17T12:30:41.582Z,97602.44
2022-08-17T12:31:47.735Z,97604.41
2022-08-17T12:32:51.300Z,97604.66
2022-08-17T12:33:54.899Z,97599.72
2022-08-17T12:34:57.926Z,97597.16
2022-08-17T12:36:07.759Z,97594.34
2022-08-17T12:37:18.865Z,97594.78
2022-08-17T12:38:32.545Z,97597.06
2022-08-17T12:39:39.170Z,97593.72
2022-08-17T12:40:55.438Z,97595.00
2022-08-17T12:42:02.824Z,97597.31
2022-08-17T12:43:08.820Z,97604.53
2022-08-17T12:44:12.459Z,97596.62
2022-08-17T12:45:29.623Z,97592.53
2022-08-17T12:46:46.777Z,97590.28
2022-08-17T12:48:04.630Z,97594.38
2022-08-17T12:49:16.388Z,97602.22
2022-08-17T12:50:29.159Z,97586.72
2022-08-17T12:51:34.427Z,97585.69
2022-08-17T12:52:40.590Z,97594.59
2022-08-17T12:53:53.367Z,97592.81
2022-08-17T12:55:06.505Z,97589.47
2022-08-17T12:56:13.931Z,97590.13
2022-08-17T12:57:46.518Z,97591.50
2022-08-17T12:58:56.562Z,97588.22
2022-08-17T13:00:11.142Z,97591.19
2022-08-17T13:01:17.069Z,97589.56
2022-08-17T13:02:28.631Z,97584.69
2022-08-17T13:03:43.118Z,97592.91
2022-08-17T13:04:46.618Z,97589.31
2022-08-17T13:06:09.201Z,97591.16
2022-08-17T13:07:14.631Z,97587.25
2022-08-17T13:08:29.115Z,97590.81
2022-08-17T13:09:40.123Z,97582.63
2022-08-17T13:10:53.601Z,97578.81
2022-08-17T13:12:00.530Z,97586.09
2022-08-17T13:13:17.875Z,97588.88
2022-08-17T13:14:22.299Z,97584.66
2022-08-17T13:15:32.463Z,97585.63
2022-08-17T13:16:36.617Z,97576.06
2022-08-17T13:17:56.826Z,97587.47
2022-08-17T13:19:19.062Z,97578.41
2022-08-17T13:20:54.797Z,97578.53
2022-08-17T13:22:01.540Z,97572.16
2022-08-17T13:23:12.640Z,97585.94
2022-08-17T13:24:17.107Z,97585.47
2022-08-17T13:25:20.043Z,97580.66
2022-08-17T13:26:29.828Z,97589.28
2022-08-17T13:27:34.218Z,97589.19
2022-08-17T13:28:38.341Z,97587.47
2022-08-17T13:29:53.984Z,97587.59
2022-08-17T13:31:21.557Z,97593.78
2022-08-17T13:32:37.729Z,97589.38
2022-08-17T13:33:45.087Z,97586.22
2022-08-17T13:35:14.993Z,97575.03
2022-08-17T13:36:33.724Z,97580.62
2022-08-17T13:37:37.714Z,97577.63
2022-08-17T13:38:49.817Z,97574.81
2022-08-17T13:40:14.226Z,97577.31
2022-08-17T13:41:33.910Z,97584.91
2022-08-17T13:42:51.968Z,97577.47
2022-08-17T13:43:56.264Z,97565.34
2022-08-17T13:45:00.426Z,97578.94
2022-08-17T13:46:34.342Z,97579.13
2022-08-17T13:47:37.295Z,97573.56
2022-08-17T13:48:42.259Z,97576.56
2022-08-17T13:49:49.467Z,97575.56
2022-08-17T13:50:55.518Z,97576.19
2022-08-17T13:51:58.960Z,97574.75
2022-08-17T13:53:18.620Z,97568.13
2022-08-17T13:54:34.659Z,97572.72
2022-08-17T13:55:37.844Z,97569.37
2022-08-17T13:56:50.330Z,97573.50
2022-08-17T13:58:04.211Z,97568.41
2022-08-17T13:59:15.962Z,97571.06
2022-08-17T14:00:37.283Z,97571.41
2022-08-17T14:01:52.833Z,97570.06
2022-08-17T14:02:58.563Z,97564.03
2022-08-17T14:04:28.210Z,97569.25
2022-08-17T14:05:32.600Z,97564.88
2022-08-17T14:06:52.203Z,97562.78
2022-08-17T14:08:06.616Z,97570.16
2022-08-17T14:09:10.264Z,97568.91
2022-08-17T14:10:17.687Z,97571.97
2022-08-17T14:11:22.546Z,97571.13
2022-08-17T14:12:27.924Z,97573.09
2022-08-17T14:13:32.454Z,97571.84
2022-08-17T14:14:35.485Z,97576.34
2022-08-17T14:15:54.562Z,97571.28
2022-08-17T14:16:59.511Z,97565.97
2022-08-17T14:18:02.538Z,97562.31
2022-08-17T14:19:06.267Z,97567.72
2022-08-17T14:20:12.542Z,97566.66
2022-08-17T14:21:15.532Z,97572.59
2022-08-17T14:22:27.256Z,97564.47
2022-08-17T14:23:32.239Z,97565.28
2022-08-17T14:24:44.494Z,97562.22